Choshi, Japan
Current Conditions -  °F | °C
As of 9:00 PM on Wednesday 28 Jan 2015 (Local Time) from RJAA Reporting Station
Few Clouds Few Clouds  
Wind Chill: 30°   Ceiling: Unl
Heat Index: 34°   Visibility: 6mi
Dew Point: 16°   Wind: 5mph
Humidity: 48%   Direction: 320°NW
Pressure: 30.18"   Gusts: NA
Location:  35.75°N, 140.81°E
Report Text: RJAA 281200Z 32004KT 9999 FEW030 01/M09 Q1022 NOSIG
Loading
Personal Weather Stations






























Interactive Weather Map New forecast layout! Learn more

10-Day Weather Forecast

Advertisements
Track Severe Weather on mobile